createdAt,value
2023-03-26T00:00:38.297Z,98335.52
2023-03-26T00:03:27.963Z,98334.23
2023-03-26T00:06:09.812Z,98335.37
2023-03-26T00:08:43.049Z,98335.16
2023-03-26T00:11:24.637Z,98339.77
2023-03-26T00:13:57.130Z,98336.57
2023-03-26T00:16:32.569Z,98333.17
2023-03-26T00:19:02.280Z,98332.65
2023-03-26T00:21:31.662Z,98335.96
2023-03-26T00:24:05.156Z,98333.62
2023-03-26T00:26:36.411Z,98330.19
2023-03-26T00:29:07.228Z,98327.49
2023-03-26T00:31:46.788Z,98323.31
2023-03-26T00:34:18.641Z,98317.06
2023-03-26T00:36:55.409Z,98312.59
2023-03-26T00:39:25.848Z,98310.11
2023-03-26T00:43:16.325Z,98310.16
2023-03-26T00:46:34.577Z,98301.02
2023-03-26T00:49:55.963Z,98292.32
2023-03-26T00:52:29.638Z,98293.52
2023-03-26T00:54:58.333Z,98284.56
2023-03-26T00:57:35.931Z,98286.21
2023-03-26T01:00:16.939Z,98286.53
2023-03-26T01:02:45.379Z,98286.82
2023-03-26T01:05:35.557Z,98285.49
2023-03-26T01:08:30.853Z,98284.55
2023-03-26T01:41:53.134Z,98275.73
2023-03-26T01:45:34.861Z,98271.48
2023-03-26T01:48:37.854Z,98275.51
2023-03-26T01:55:34.571Z,98272.48
2023-03-26T01:59:34.664Z,98267.65
2023-03-26T02:02:45.627Z,98265.38
2023-03-26T02:07:02.298Z,98266.25
2023-03-26T02:10:48.699Z,98263.53
2023-03-26T02:14:27.494Z,98260.48
2023-03-26T02:18:21.542Z,98258.17
2023-03-26T02:22:03.538Z,98254.27
2023-03-26T02:25:35.305Z,98251.51
2023-03-26T02:28:36.180Z,98251.93
2023-03-26T02:31:55.647Z,98246.85
2023-03-26T02:35:10.225Z,98245.80
2023-03-26T02:38:17.792Z,98246.62
2023-03-26T02:41:26.890Z,98245.98
2023-03-26T02:44:29.111Z,98244.89
2023-03-26T02:47:30.571Z,98247.88
2023-03-26T02:51:42.464Z,98252.60
2023-03-26T02:55:13.814Z,98254.10
2023-03-26T02:58:17.667Z,98254.39
2023-03-26T03:01:14.513Z,98246.38
2023-03-26T03:04:26.496Z,98251.84
2023-03-26T03:07:39.022Z,98258.15
2023-03-26T03:10:13.954Z,98255.81
2023-03-26T03:13:07.940Z,98254.79
2023-03-26T03:15:36.436Z,98257.27
2023-03-26T03:18:05.293Z,98259.55
2023-03-26T03:20:36.062Z,98262.15
2023-03-26T03:23:04.588Z,98260.08
2023-03-26T03:25:34.342Z,98258.33
2023-03-26T03:28:03.502Z,98258.98
2023-03-26T03:30:31.961Z,98258.84
2023-03-26T03:33:22.428Z,98259.11
2023-03-26T03:35:51.993Z,98256.56
2023-03-26T03:38:27.984Z,98257.26
2023-03-26T03:40:57.140Z,98255.79
2023-03-26T03:43:34.861Z,98256.52
2023-03-26T03:46:29.633Z,98255.98
2023-03-26T03:49:00.666Z,98251.54
2023-03-26T03:51:53.325Z,98251.94
2023-03-26T03:54:36.129Z,98250.95
2023-03-26T04:30:20.810Z,98279.34
2023-03-26T04:33:04.125Z,98264.08
2023-03-26T04:35:38.000Z,98248.84
2023-03-26T04:38:10.354Z,98234.07
2023-03-26T04:40:42.612Z,98212.45
2023-03-26T04:43:27.621Z,98194.36
2023-03-26T04:46:14.976Z,98171.48
2023-03-26T04:48:54.469Z,98157.36
2023-03-26T04:51:27.273Z,98143.55
2023-03-26T04:54:00.167Z,98133.27
2023-03-26T04:56:54.119Z,98126.52
2023-03-26T04:59:34.682Z,98115.56
2023-03-26T05:02:06.214Z,98112.45
2023-03-26T05:04:40.435Z,98107.30
2023-03-26T05:07:21.104Z,98101.83
2023-03-26T05:10:29.902Z,98095.35
2023-03-26T05:13:51.500Z,98090.80
2023-03-26T05:16:50.859Z,98083.17
2023-03-26T05:20:18.412Z,98087.84
2023-03-26T05:23:46.632Z,98085.06
2023-03-26T05:26:21.493Z,98076.27
2023-03-26T05:28:50.079Z,98071.98
2023-03-26T05:31:42.634Z,98061.10
2023-03-26T05:34:11.658Z,98065.58
2023-03-26T05:36:42.638Z,98066.67
2023-03-26T05:39:27.096Z,98075.68
2023-03-26T05:42:28.106Z,98078.06
2023-03-26T05:45:14.221Z,98077.33
2023-03-26T05:47:45.799Z,98074.64
2023-03-26T05:50:15.437Z,98072.21
2023-03-26T05:52:44.884Z,98077.14
2023-03-26T05:55:33.559Z,98084.61
2023-03-26T05:58:38.127Z,98092.02
2023-03-26T06:04:32.082Z,98102.23
2023-03-26T06:14:54.274Z,98121.17
2023-03-26T06:17:41.339Z,98125.74
2023-03-26T06:20:20.352Z,98127.55
2023-03-26T06:22:51.264Z,98132.96
2023-03-26T06:25:40.950Z,98133.52
2023-03-26T06:28:23.186Z,98139.02
2023-03-26T06:32:16.366Z,98144.65
2023-03-26T07:05:18.390Z,98213.00
2023-03-26T07:08:12.220Z,98218.48
2023-03-26T07:10:59.256Z,98224.05
2023-03-26T07:13:49.960Z,98233.98
2023-03-26T07:16:48.279Z,98234.08
2023-03-26T07:19:35.813Z,98241.73
2023-03-26T07:22:04.856Z,98243.64
2023-03-26T07:24:55.332Z,98243.54
2023-03-26T07:28:02.930Z,98244.93
2023-03-26T07:31:23.429Z,98244.92
2023-03-26T07:34:39.844Z,98242.75
2023-03-26T07:38:11.802Z,98245.73
2023-03-26T07:41:17.018Z,98245.89
2023-03-26T07:44:28.877Z,98258.73
2023-03-26T07:47:35.489Z,98273.05
2023-03-26T07:50:25.715Z,98271.52
2023-03-26T07:53:00.372Z,98262.60
2023-03-26T07:56:14.268Z,98247.83
2023-03-26T07:58:58.480Z,98237.03
2023-03-26T08:01:52.684Z,98220.81
2023-03-26T08:05:05.273Z,98204.86
2023-03-26T08:08:07.086Z,98192.50
2023-03-26T08:10:43.661Z,98188.70
2023-03-26T08:13:49.987Z,98174.80
2023-03-26T08:16:32.452Z,98165.38
2023-03-26T08:19:46.680Z,98152.48
2023-03-26T08:30:03.136Z,98125.99
2023-03-26T08:32:34.032Z,98118.98
2023-03-26T08:35:05.947Z,98107.20
2023-03-26T08:37:35.355Z,98096.05
2023-03-26T08:44:41.719Z,98095.95
2023-03-26T08:48:19.483Z,98078.77
2023-03-26T08:51:35.156Z,98071.31
2023-03-26T08:54:32.445Z,98077.17
2023-03-26T08:57:27.938Z,98062.16
2023-03-26T09:00:17.314Z,98065.92
2023-03-26T09:03:08.362Z,98051.52
2023-03-26T09:05:58.376Z,98035.20
2023-03-26T09:08:53.955Z,98017.41
2023-03-26T09:11:29.205Z,98002.48
2023-03-26T09:14:13.238Z,97987.62
2023-03-26T09:17:20.130Z,97966.05
2023-03-26T09:20:00.734Z,97943.92
2023-03-26T09:23:08.510Z,97927.41
2023-03-26T09:26:04.932Z,97906.42
2023-03-26T09:28:59.838Z,97885.77
2023-03-26T09:32:02.777Z,97857.52
2023-03-26T09:34:52.423Z,97839.07
2023-03-26T09:38:01.939Z,97826.56
2023-03-26T09:40:53.830Z,97816.65
2023-03-26T09:44:06.597Z,97827.75
2023-03-26T09:46:43.044Z,97845.94
2023-03-26T09:49:25.406Z,97856.73
2023-03-26T10:20:46.363Z,98104.86
2023-03-26T11:01:04.792Z,98207.46
2023-03-26T11:03:54.436Z,98195.71
2023-03-26T11:06:52.894Z,98204.67
2023-03-26T11:10:31.201Z,98213.23
2023-03-26T11:13:19.806Z,98225.35
2023-03-26T11:16:33.821Z,98238.63
2023-03-26T11:19:03.799Z,98249.10
2023-03-26T11:21:48.269Z,98259.52
2023-03-26T11:24:33.714Z,98262.73
2023-03-26T11:27:15.984Z,98271.41
2023-03-26T11:30:20.496Z,98264.89
2023-03-26T11:32:54.653Z,98264.45
2023-03-26T11:35:40.336Z,98272.44
2023-03-26T11:38:26.881Z,98277.38
2023-03-26T11:41:23.017Z,98260.86
2023-03-26T11:44:15.331Z,98257.95
2023-03-26T11:46:46.528Z,98268.36
2023-03-26T11:49:18.852Z,98268.74
2023-03-26T11:51:48.827Z,98266.30
2023-03-26T11:54:18.869Z,98266.79
2023-03-26T11:57:12.557Z,98270.73
2023-03-26T12:04:20.175Z,98288.77
2023-03-26T12:07:07.717Z,98281.60
2023-03-26T12:09:49.516Z,98280.60
2023-03-26T12:12:20.434Z,98267.81
2023-03-26T12:14:48.832Z,98255.42
2023-03-26T12:17:40.372Z,98245.66
2023-03-26T12:20:38.839Z,98236.48
2023-03-26T12:23:39.155Z,98225.73
2023-03-26T12:26:40.139Z,98220.91
2023-03-26T12:29:28.510Z,98226.64
2023-03-26T12:32:05.473Z,98226.17
2023-03-26T12:34:54.391Z,98237.19
2023-03-26T12:37:54.652Z,98233.45
2023-03-26T12:40:38.290Z,98240.35
2023-03-26T12:44:53.414Z,98253.03
2023-03-26T12:47:57.602Z,98258.34
2023-03-26T12:49:24.965Z,98269.98
2023-03-26T12:52:10.761Z,98278.77
2023-03-26T12:55:12.151Z,98313.73
2023-03-26T12:58:16.212Z,98336.31
2023-03-26T13:00:57.399Z,98345.48
2023-03-26T13:03:57.216Z,98339.81
2023-03-26T13:06:59.588Z,98331.50
2023-03-26T13:26:40.454Z,98333.52
2023-03-26T13:29:11.728Z,98321.39
2023-03-26T13:31:55.005Z,98311.70
2023-03-26T13:35:10.341Z,98303.48
2023-03-26T13:38:00.624Z,98302.45
2023-03-26T13:40:48.400Z,98296.50
2023-03-26T13:43:48.762Z,98292.67
2023-03-26T13:46:37.020Z,98275.00
2023-03-26T13:49:16.959Z,98272.41
2023-03-26T13:51:58.910Z,98282.00
2023-03-26T13:54:40.248Z,98276.41
2023-03-26T13:57:33.375Z,98276.83
2023-03-26T14:00:18.532Z,98272.70
2023-03-26T14:03:16.615Z,98265.87
2023-03-26T14:05:52.590Z,98273.89
2023-03-26T14:08:40.706Z,98284.14
2023-03-26T14:24:02.526Z,98273.86
2023-03-26T14:31:42.280Z,98284.38
2023-03-26T14:34:31.138Z,98281.61
2023-03-26T14:37:27.249Z,98281.77
2023-03-26T14:40:19.022Z,98288.39
2023-03-26T14:50:46.930Z,98292.17
2023-03-26T14:53:28.804Z,98273.39
2023-03-26T14:56:22.180Z,98268.13
2023-03-26T14:59:11.604Z,98268.55
2023-03-26T15:02:07.116Z,98271.77
2023-03-26T15:04:54.163Z,98278.79
2023-03-26T15:07:41.869Z,98276.10
2023-03-26T15:10:44.232Z,98276.58
2023-03-26T15:13:55.427Z,98278.45
2023-03-26T15:16:38.743Z,98276.05
2023-03-26T15:19:36.886Z,98272.71
2023-03-26T15:41:01.517Z,98234.52
2023-03-26T15:44:27.772Z,98231.13
2023-03-26T16:09:52.394Z,98262.67
2023-03-26T16:12:41.575Z,98261.23
2023-03-26T17:00:06.435Z,98303.08
2023-03-26T17:03:15.774Z,98298.38
2023-03-26T17:05:59.287Z,98291.07
2023-03-26T17:09:23.928Z,98294.92
2023-03-26T17:12:08.062Z,98297.50
2023-03-26T17:14:55.745Z,98299.90
2023-03-26T17:17:31.950Z,98298.65
2023-03-26T17:20:33.181Z,98304.08
2023-03-26T17:30:55.442Z,98303.70
2023-03-26T17:33:39.001Z,98301.15
2023-03-26T17:36:21.378Z,98302.63
2023-03-26T17:38:49.429Z,98303.64
2023-03-26T17:41:54.532Z,98307.13
2023-03-26T17:45:01.317Z,98311.70
2023-03-26T17:47:39.609Z,98310.60
2023-03-26T17:50:16.641Z,98306.22
2023-03-26T17:53:12.962Z,98300.92
2023-03-26T17:55:51.120Z,98293.98
2023-03-26T17:58:29.682Z,98301.93
2023-03-26T18:01:23.018Z,98305.51
2023-03-26T18:04:00.131Z,98306.67
2023-03-26T18:06:45.077Z,98298.75
2023-03-26T18:09:41.979Z,98297.45
2023-03-26T18:12:21.678Z,98291.30
2023-03-26T18:15:24.175Z,98285.00
2023-03-26T18:18:01.597Z,98289.08
2023-03-26T18:20:36.874Z,98299.66
2023-03-26T18:23:37.842Z,98305.36
2023-03-26T18:26:38.699Z,98310.48
2023-03-26T18:29:33.824Z,98307.11
2023-03-26T18:32:13.058Z,98305.52
2023-03-26T18:34:50.176Z,98301.85
2023-03-26T18:37:27.629Z,98299.46
2023-03-26T18:40:12.728Z,98294.98
2023-03-26T18:42:45.847Z,98293.04
2023-03-26T18:45:23.391Z,98289.95
2023-03-26T18:48:32.566Z,98280.15
2023-03-26T18:51:08.661Z,98272.48
2023-03-26T18:54:06.892Z,98274.28
2023-03-26T18:56:59.186Z,98270.10
2023-03-26T18:59:50.719Z,98265.50
2023-03-26T19:02:22.310Z,98265.26
2023-03-26T19:04:54.419Z,98264.34
2023-03-26T19:07:26.627Z,98263.19
2023-03-26T19:10:22.351Z,98263.07
2023-03-26T19:13:00.304Z,98261.52
2023-03-26T19:15:44.594Z,98255.09
2023-03-26T19:18:27.305Z,98250.08
2023-03-26T19:34:53.518Z,98236.30
2023-03-26T19:37:23.886Z,98252.54
2023-03-26T19:40:01.643Z,98245.05
2023-03-26T19:42:43.918Z,98233.25
2023-03-26T19:45:29.342Z,98229.45
2023-03-26T19:48:13.857Z,98225.64
2023-03-26T19:51:06.275Z,98225.77
2023-03-26T19:53:50.794Z,98228.53
2023-03-26T19:56:39.707Z,98227.97
2023-03-26T20:00:19.208Z,98225.56
2023-03-26T20:02:49.184Z,98233.00
2023-03-26T20:05:26.798Z,98230.55
2023-03-26T20:07:59.806Z,98225.44
2023-03-26T20:10:41.068Z,98219.31
2023-03-26T20:13:20.975Z,98213.92
2023-03-26T20:16:15.989Z,98211.15
2023-03-26T20:18:44.504Z,98210.77
2023-03-26T20:21:19.701Z,98212.40
2023-03-26T20:23:48.244Z,98208.98
2023-03-26T20:26:18.664Z,98204.30
2023-03-26T20:28:53.419Z,98203.08
2023-03-26T20:31:28.903Z,98201.92
2023-03-26T20:33:57.935Z,98199.88
2023-03-26T20:36:35.989Z,98201.00
2023-03-26T20:39:07.873Z,98195.91
2023-03-26T20:41:42.978Z,98193.44
2023-03-26T20:44:17.754Z,98191.19
2023-03-26T20:46:48.369Z,98179.42
2023-03-26T20:49:17.943Z,98177.27
2023-03-26T20:51:47.022Z,98170.27
2023-03-26T20:54:18.221Z,98165.09
2023-03-26T20:56:49.595Z,98155.25
2023-03-26T20:59:22.321Z,98144.45
2023-03-26T21:01:51.263Z,98141.57
2023-03-26T21:04:21.502Z,98138.57
2023-03-26T21:06:50.110Z,98140.69
2023-03-26T21:09:24.172Z,98138.33
2023-03-26T21:12:01.838Z,98138.98
2023-03-26T21:14:33.649Z,98138.50
2023-03-26T21:17:02.416Z,98140.24
2023-03-26T21:19:30.951Z,98142.25
2023-03-26T21:22:08.029Z,98138.45
2023-03-26T21:25:03.211Z,98139.05
2023-03-26T21:27:57.295Z,98142.89
2023-03-26T21:30:27.943Z,98143.16
2023-03-26T21:32:56.311Z,98140.27
2023-03-26T21:35:25.089Z,98138.09
2023-03-26T21:37:54.270Z,98137.59
2023-03-26T21:40:22.858Z,98135.86
2023-03-26T21:42:54.868Z,98135.33
2023-03-26T21:45:23.532Z,98134.86
2023-03-26T21:47:54.814Z,98133.62
2023-03-26T21:50:24.188Z,98132.71
2023-03-26T21:52:52.801Z,98133.59
2023-03-26T21:55:23.183Z,98132.20
2023-03-26T21:58:11.169Z,98128.02
2023-03-26T22:00:54.186Z,98125.64
2023-03-26T22:03:34.701Z,98124.68
2023-03-26T22:06:13.621Z,98124.06
2023-03-26T22:08:43.456Z,98117.66
2023-03-26T22:11:14.203Z,98114.20
2023-03-26T22:13:42.956Z,98108.78
2023-03-26T22:16:11.756Z,98104.39
2023-03-26T22:18:40.045Z,98103.61
2023-03-26T22:21:08.232Z,98102.52
2023-03-26T22:23:40.197Z,98099.80
2023-03-26T22:26:08.351Z,98094.85
2023-03-26T22:28:36.778Z,98084.02
2023-03-26T22:31:09.341Z,98077.52
2023-03-26T22:33:38.363Z,98073.70
2023-03-26T22:36:23.107Z,98067.27
2023-03-26T22:38:55.076Z,98059.58
2023-03-26T22:41:23.668Z,98055.55
2023-03-26T22:43:55.331Z,98054.42
2023-03-26T22:46:24.867Z,98053.73
2023-03-26T22:48:53.435Z,98051.61
2023-03-26T22:51:21.925Z,98053.17
2023-03-26T22:53:50.918Z,98046.14
2023-03-26T22:56:23.836Z,98041.89
2023-03-26T22:58:52.281Z,98034.70
2023-03-26T23:01:25.024Z,98030.16
2023-03-26T23:03:55.259Z,98024.11
2023-03-26T23:06:23.835Z,98022.99
2023-03-26T23:08:52.377Z,98016.81
2023-03-26T23:11:22.220Z,98014.31
2023-03-26T23:13:51.387Z,98004.86
2023-03-26T23:16:21.583Z,98000.55
2023-03-26T23:18:50.319Z,97989.63
2023-03-26T23:21:22.359Z,97988.71
2023-03-26T23:23:54.890Z,97983.27
2023-03-26T23:26:25.402Z,97977.52
2023-03-26T23:28:54.185Z,97975.90
2023-03-26T23:31:28.480Z,97974.24
2023-03-26T23:33:57.961Z,97972.16
2023-03-26T23:36:26.430Z,97977.33
2023-03-26T23:38:55.481Z,97977.52
2023-03-26T23:41:29.360Z,97971.45
2023-03-26T23:43:57.669Z,97971.89
2023-03-26T23:46:30.965Z,97971.30
2023-03-26T23:49:02.462Z,97974.38
2023-03-26T23:51:31.647Z,97982.54
2023-03-26T23:54:05.087Z,97980.71
2023-03-26T23:56:33.179Z,97984.34
2023-03-26T23:59:01.453Z,97990.09
